sensor_id;sensor_type;location;lat;lon;timestamp;P1;durP1;ratioP1;P2;durP2;ratioP2
42616;SDS011;28250;52.320;0.360;2024-02-14T00:02:24;5.15;;;1.10;;
42616;SDS011;28250;52.320;0.360;2024-02-14T00:04:54;4.88;;;0.85;;
42616;SDS011;28250;52.320;0.360;2024-02-14T00:07:20;4.80;;;1.87;;
42616;SDS011;28250;52.320;0.360;2024-02-14T00:09:47;7.65;;;1.45;;
42616;SDS011;28250;52.320;0.360;2024-02-14T00:12:13;11.88;;;1.30;;
42616;SDS011;28250;52.320;0.360;2024-02-14T00:14:39;7.60;;;1.40;;
42616;SDS011;28250;52.320;0.360;2024-02-14T00:17:06;5.97;;;1.13;;
42616;SDS011;28250;52.320;0.360;2024-02-14T00:19:32;3.63;;;0.88;;
42616;SDS011;28250;52.320;0.360;2024-02-14T00:21:58;6.97;;;1.15;;
42616;SDS011;28250;52.320;0.360;2024-02-14T00:24:25;5.05;;;0.90;;
42616;SDS011;28250;52.320;0.360;2024-02-14T00:26:54;7.55;;;1.00;;
42616;SDS011;28250;52.320;0.360;2024-02-14T00:29:21;8.57;;;2.45;;
42616;SDS011;28250;52.320;0.360;2024-02-14T00:31:48;8.95;;;1.00;;
42616;SDS011;28250;52.320;0.360;2024-02-14T00:34:20;7.78;;;1.42;;
42616;SDS011;28250;52.320;0.360;2024-02-14T00:36:46;7.22;;;1.05;;
42616;SDS011;28250;52.320;0.360;2024-02-14T00:39:12;4.60;;;1.13;;
42616;SDS011;28250;52.320;0.360;2024-02-14T00:41:38;8.00;;;1.77;;
42616;SDS011;28250;52.320;0.360;2024-02-14T00:44:04;9.23;;;1.20;;
42616;SDS011;28250;52.320;0.360;2024-02-14T00:46:30;6.20;;;1.10;;
42616;SDS011;28250;52.320;0.360;2024-02-14T00:48:56;4.72;;;1.38;;
42616;SDS011;28250;52.320;0.360;2024-02-14T00:51:22;5.07;;;1.23;;
42616;SDS011;28250;52.320;0.360;2024-02-14T00:53:48;7.95;;;1.15;;
42616;SDS011;28250;52.320;0.360;2024-02-14T00:56:15;8.60;;;1.25;;
42616;SDS011;28250;52.320;0.360;2024-02-14T00:58:41;5.82;;;1.10;;
42616;SDS011;28250;52.320;0.360;2024-02-14T01:01:07;5.43;;;1.00;;
42616;SDS011;28250;52.320;0.360;2024-02-14T01:03:33;13.52;;;2.33;;
42616;SDS011;28250;52.320;0.360;2024-02-14T01:05:59;11.82;;;1.67;;
42616;SDS011;28250;52.320;0.360;2024-02-14T01:08:25;14.57;;;1.70;;
42616;SDS011;28250;52.320;0.360;2024-02-14T01:10:51;8.95;;;1.50;;
42616;SDS011;28250;52.320;0.360;2024-02-14T01:13:18;7.88;;;2.28;;
42616;SDS011;28250;52.320;0.360;2024-02-14T01:15:44;12.47;;;2.03;;
42616;SDS011;28250;52.320;0.360;2024-02-14T01:21:19;7.38;;;1.58;;
42616;SDS011;28250;52.320;0.360;2024-02-14T01:23:45;13.07;;;2.92;;
42616;SDS011;28250;52.320;0.360;2024-02-14T01:26:12;15.75;;;2.38;;
42616;SDS011;28250;52.320;0.360;2024-02-14T01:28:38;21.90;;;2.13;;
42616;SDS011;28250;52.320;0.360;2024-02-14T01:31:04;11.45;;;2.15;;
42616;SDS011;28250;52.320;0.360;2024-02-14T01:33:30;18.13;;;2.22;;
42616;SDS011;28250;52.320;0.360;2024-02-14T01:35:56;13.45;;;1.98;;
42616;SDS011;28250;52.320;0.360;2024-02-14T01:38:23;14.00;;;2.45;;
42616;SDS011;28250;52.320;0.360;2024-02-14T01:40:49;13.27;;;2.15;;
42616;SDS011;28250;52.320;0.360;2024-02-14T01:43:15;11.70;;;2.00;;
42616;SDS011;28250;52.320;0.360;2024-02-14T01:45:41;13.52;;;1.35;;
42616;SDS011;28250;52.320;0.360;2024-02-14T01:48:13;7.45;;;1.70;;
42616;SDS011;28250;52.320;0.360;2024-02-14T01:50:43;11.85;;;1.55;;
42616;SDS011;28250;52.320;0.360;2024-02-14T01:53:11;10.05;;;1.83;;
42616;SDS011;28250;52.320;0.360;2024-02-14T01:55:37;18.70;;;2.22;;
42616;SDS011;28250;52.320;0.360;2024-02-14T01:58:04;14.65;;;2.75;;
42616;SDS011;28250;52.320;0.360;2024-02-14T02:00:30;11.60;;;1.95;;
42616;SDS011;28250;52.320;0.360;2024-02-14T02:03:00;17.55;;;2.78;;
42616;SDS011;28250;52.320;0.360;2024-02-14T02:05:27;12.50;;;2.45;;
42616;SDS011;28250;52.320;0.360;2024-02-14T02:07:53;16.52;;;3.00;;
42616;SDS011;28250;52.320;0.360;2024-02-14T02:10:20;14.27;;;2.97;;
42616;SDS011;28250;52.320;0.360;2024-02-14T02:15:54;12.18;;;1.98;;
42616;SDS011;28250;52.320;0.360;2024-02-14T02:18:40;14.98;;;2.88;;
42616;SDS011;28250;52.320;0.360;2024-02-14T02:21:27;16.73;;;2.20;;
42616;SDS011;28250;52.320;0.360;2024-02-14T02:23:53;14.87;;;2.00;;
42616;SDS011;28250;52.320;0.360;2024-02-14T02:26:19;12.38;;;3.10;;
42616;SDS011;28250;52.320;0.360;2024-02-14T02:29:05;12.80;;;2.22;;
42616;SDS011;28250;52.320;0.360;2024-02-14T02:31:31;16.15;;;1.83;;
42616;SDS011;28250;52.320;0.360;2024-02-14T02:33:58;19.02;;;2.50;;
42616;SDS011;28250;52.320;0.360;2024-02-14T02:36:24;10.57;;;1.80;;
42616;SDS011;28250;52.320;0.360;2024-02-14T02:39:15;13.02;;;2.00;;
42616;SDS011;28250;52.320;0.360;2024-02-14T02:42:02;18.60;;;2.20;;
42616;SDS011;28250;52.320;0.360;2024-02-14T02:44:54;15.73;;;1.95;;
42616;SDS011;28250;52.320;0.360;2024-02-14T02:47:46;13.77;;;2.13;;
42616;SDS011;28250;52.320;0.360;2024-02-14T02:50:33;12.50;;;2.22;;
42616;SDS011;28250;52.320;0.360;2024-02-14T02:53:19;13.60;;;2.85;;
42616;SDS011;28250;52.320;0.360;2024-02-14T02:56:06;13.85;;;2.15;;
42616;SDS011;28250;52.320;0.360;2024-02-14T02:58:32;25.73;;;4.07;;
42616;SDS011;28250;52.320;0.360;2024-02-14T03:00:59;16.45;;;2.65;;
42616;SDS011;28250;52.320;0.360;2024-02-14T03:03:45;17.27;;;2.55;;
42616;SDS011;28250;52.320;0.360;2024-02-14T03:06:25;22.65;;;2.65;;
42616;SDS011;28250;52.320;0.360;2024-02-14T03:09:08;12.48;;;3.33;;
42616;SDS011;28250;52.320;0.360;2024-02-14T03:11:54;15.43;;;3.33;;
42616;SDS011;28250;52.320;0.360;2024-02-14T03:14:42;19.83;;;3.45;;
42616;SDS011;28250;52.320;0.360;2024-02-14T03:19:55;9.88;;;1.92;;
42616;SDS011;28250;52.320;0.360;2024-02-14T03:22:21;12.52;;;2.40;;
42616;SDS011;28250;52.320;0.360;2024-02-14T03:24:48;16.60;;;2.28;;
42616;SDS011;28250;52.320;0.360;2024-02-14T03:27:14;17.55;;;2.53;;
42616;SDS011;28250;52.320;0.360;2024-02-14T03:29:42;22.15;;;2.88;;
42616;SDS011;28250;52.320;0.360;2024-02-14T03:32:09;18.73;;;3.10;;
42616;SDS011;28250;52.320;0.360;2024-02-14T03:34:35;14.68;;;2.75;;
42616;SDS011;28250;52.320;0.360;2024-02-14T03:37:02;17.33;;;2.35;;
42616;SDS011;28250;52.320;0.360;2024-02-14T03:39:28;16.40;;;2.58;;
42616;SDS011;28250;52.320;0.360;2024-02-14T03:41:56;21.65;;;3.25;;
42616;SDS011;28250;52.320;0.360;2024-02-14T03:44:22;20.38;;;2.53;;
42616;SDS011;28250;52.320;0.360;2024-02-14T03:46:49;18.38;;;2.95;;
42616;SDS011;28250;52.320;0.360;2024-02-14T03:49:15;16.60;;;3.43;;
42616;SDS011;28250;52.320;0.360;2024-02-14T03:51:42;18.88;;;2.65;;
42616;SDS011;28250;52.320;0.360;2024-02-14T03:54:08;19.65;;;3.13;;
42616;SDS011;28250;52.320;0.360;2024-02-14T03:56:34;13.88;;;2.65;;
42616;SDS011;28250;52.320;0.360;2024-02-14T03:59:02;18.02;;;2.75;;
42616;SDS011;28250;52.320;0.360;2024-02-14T04:01:31;15.45;;;2.58;;
42616;SDS011;28250;52.320;0.360;2024-02-14T04:03:58;18.80;;;2.90;;
42616;SDS011;28250;52.320;0.360;2024-02-14T04:06:24;26.20;;;2.73;;
42616;SDS011;28250;52.320;0.360;2024-02-14T04:08:52;18.05;;;2.88;;
42616;SDS011;28250;52.320;0.360;2024-02-14T04:11:18;14.15;;;2.13;;
42616;SDS011;28250;52.320;0.360;2024-02-14T04:13:44;14.70;;;2.22;;
42616;SDS011;28250;52.320;0.360;2024-02-14T04:16:10;16.25;;;3.25;;
42616;SDS011;28250;52.320;0.360;2024-02-14T04:18:48;18.67;;;2.45;;
42616;SDS011;28250;52.320;0.360;2024-02-14T04:21:14;19.40;;;2.30;;
42616;SDS011;28250;52.320;0.360;2024-02-14T04:23:41;13.57;;;2.10;;
42616;SDS011;28250;52.320;0.360;2024-02-14T04:26:07;8.43;;;1.70;;
42616;SDS011;28250;52.320;0.360;2024-02-14T04:28:33;16.05;;;2.63;;
42616;SDS011;28250;52.320;0.360;2024-02-14T04:30:59;16.42;;;3.05;;
42616;SDS011;28250;52.320;0.360;2024-02-14T04:33:31;11.23;;;2.10;;
42616;SDS011;28250;52.320;0.360;2024-02-14T04:35:57;9.45;;;1.65;;
42616;SDS011;28250;52.320;0.360;2024-02-14T04:38:23;13.63;;;2.13;;
42616;SDS011;28250;52.320;0.360;2024-02-14T04:40:49;9.73;;;1.65;;
42616;SDS011;28250;52.320;0.360;2024-02-14T04:43:16;12.13;;;2.45;;
42616;SDS011;28250;52.320;0.360;2024-02-14T04:45:42;11.38;;;1.67;;
42616;SDS011;28250;52.320;0.360;2024-02-14T04:48:09;11.38;;;1.75;;
42616;SDS011;28250;52.320;0.360;2024-02-14T04:50:35;11.57;;;1.50;;
42616;SDS011;28250;52.320;0.360;2024-02-14T04:53:02;8.20;;;1.45;;
42616;SDS011;28250;52.320;0.360;2024-02-14T04:55:28;11.88;;;1.90;;
42616;SDS011;28250;52.320;0.360;2024-02-14T04:57:54;9.80;;;1.73;;
42616;SDS011;28250;52.320;0.360;2024-02-14T05:00:20;12.05;;;1.67;;
42616;SDS011;28250;52.320;0.360;2024-02-14T05:02:47;5.70;;;1.20;;
42616;SDS011;28250;52.320;0.360;2024-02-14T05:05:13;11.43;;;1.83;;
42616;SDS011;28250;52.320;0.360;2024-02-14T05:07:52;7.68;;;1.25;;
42616;SDS011;28250;52.320;0.360;2024-02-14T05:10:18;6.35;;;1.20;;
42616;SDS011;28250;52.320;0.360;2024-02-14T05:12:44;10.90;;;1.42;;
42616;SDS011;28250;52.320;0.360;2024-02-14T05:15:10;6.78;;;1.70;;
42616;SDS011;28250;52.320;0.360;2024-02-14T05:20:05;7.60;;;1.10;;
42616;SDS011;28250;52.320;0.360;2024-02-14T05:22:37;8.90;;;1.35;;
42616;SDS011;28250;52.320;0.360;2024-02-14T05:25:04;9.55;;;1.17;;
42616;SDS011;28250;52.320;0.360;2024-02-14T05:27:43;8.40;;;1.05;;
42616;SDS011;28250;52.320;0.360;2024-02-14T05:30:12;7.00;;;0.88;;
42616;SDS011;28250;52.320;0.360;2024-02-14T05:32:48;4.68;;;0.93;;
42616;SDS011;28250;52.320;0.360;2024-02-14T05:35:14;11.90;;;1.35;;
42616;SDS011;28250;52.320;0.360;2024-02-14T05:37:40;6.68;;;1.90;;
42616;SDS011;28250;52.320;0.360;2024-02-14T05:40:07;6.55;;;1.40;;
42616;SDS011;28250;52.320;0.360;2024-02-14T05:42:34;8.07;;;1.10;;
42616;SDS011;28250;52.320;0.360;2024-02-14T05:45:00;5.47;;;0.93;;
42616;SDS011;28250;52.320;0.360;2024-02-14T05:47:34;8.95;;;1.75;;
42616;SDS011;28250;52.320;0.360;2024-02-14T05:50:06;5.78;;;1.83;;
42616;SDS011;28250;52.320;0.360;2024-02-14T05:52:34;7.50;;;1.10;;
42616;SDS011;28250;52.320;0.360;2024-02-14T05:55:01;6.07;;;0.80;;
42616;SDS011;28250;52.320;0.360;2024-02-14T05:57:27;6.35;;;0.95;;
42616;SDS011;28250;52.320;0.360;2024-02-14T05:59:53;11.48;;;1.52;;
42616;SDS011;28250;52.320;0.360;2024-02-14T06:02:19;5.28;;;1.25;;
42616;SDS011;28250;52.320;0.360;2024-02-14T06:04:47;7.15;;;1.30;;
42616;SDS011;28250;52.320;0.360;2024-02-14T06:07:13;8.05;;;1.10;;
42616;SDS011;28250;52.320;0.360;2024-02-14T06:09:39;6.43;;;1.00;;
42616;SDS011;28250;52.320;0.360;2024-02-14T06:12:06;8.20;;;1.90;;
42616;SDS011;28250;52.320;0.360;2024-02-14T06:14:32;6.25;;;0.95;;
42616;SDS011;28250;52.320;0.360;2024-02-14T06:17:00;9.90;;;1.13;;
42616;SDS011;28250;52.320;0.360;2024-02-14T06:19:26;6.22;;;1.10;;
42616;SDS011;28250;52.320;0.360;2024-02-14T06:21:53;8.30;;;1.33;;
42616;SDS011;28250;52.320;0.360;2024-02-14T06:24:19;9.10;;;1.20;;
42616;SDS011;28250;52.320;0.360;2024-02-14T06:26:45;7.68;;;1.42;;
42616;SDS011;28250;52.320;0.360;2024-02-14T06:29:11;13.13;;;1.43;;
42616;SDS011;28250;52.320;0.360;2024-02-14T06:31:38;5.45;;;1.05;;
42616;SDS011;28250;52.320;0.360;2024-02-14T06:34:04;6.95;;;0.90;;
42616;SDS011;28250;52.320;0.360;2024-02-14T06:36:32;7.35;;;1.55;;
42616;SDS011;28250;52.320;0.360;2024-02-14T06:38:58;5.00;;;1.30;;
42616;SDS011;28250;52.320;0.360;2024-02-14T06:41:24;7.20;;;1.10;;
42616;SDS011;28250;52.320;0.360;2024-02-14T06:43:50;10.63;;;1.40;;
42616;SDS011;28250;52.320;0.360;2024-02-14T06:46:16;4.07;;;1.02;;
42616;SDS011;28250;52.320;0.360;2024-02-14T06:48:45;5.40;;;1.10;;
42616;SDS011;28250;52.320;0.360;2024-02-14T06:51:11;3.22;;;0.88;;
42616;SDS011;28250;52.320;0.360;2024-02-14T06:53:38;5.10;;;1.33;;
42616;SDS011;28250;52.320;0.360;2024-02-14T06:56:04;7.13;;;1.10;;
42616;SDS011;28250;52.320;0.360;2024-02-14T06:58:30;8.18;;;1.20;;
42616;SDS011;28250;52.320;0.360;2024-02-14T07:00:57;3.97;;;0.82;;
42616;SDS011;28250;52.320;0.360;2024-02-14T07:03:23;5.13;;;0.77;;
42616;SDS011;28250;52.320;0.360;2024-02-14T07:05:49;7.95;;;1.10;;
42616;SDS011;28250;52.320;0.360;2024-02-14T07:08:16;5.63;;;0.88;;
42616;SDS011;28250;52.320;0.360;2024-02-14T07:10:42;7.65;;;1.42;;
42616;SDS011;28250;52.320;0.360;2024-02-14T07:13:08;3.40;;;1.45;;
42616;SDS011;28250;52.320;0.360;2024-02-14T07:15:34;5.68;;;1.38;;
42616;SDS011;28250;52.320;0.360;2024-02-14T07:18:00;8.23;;;1.00;;
42616;SDS011;28250;52.320;0.360;2024-02-14T07:20:26;8.88;;;1.75;;
42616;SDS011;28250;52.320;0.360;2024-02-14T07:22:53;6.55;;;1.42;;
42616;SDS011;28250;52.320;0.360;2024-02-14T07:25:19;4.07;;;1.08;;
42616;SDS011;28250;52.320;0.360;2024-02-14T07:27:45;6.32;;;1.02;;
42616;SDS011;28250;52.320;0.360;2024-02-14T07:30:13;4.80;;;1.10;;
42616;SDS011;28250;52.320;0.360;2024-02-14T07:32:40;9.02;;;1.50;;
42616;SDS011;28250;52.320;0.360;2024-02-14T07:35:06;7.43;;;1.00;;
42616;SDS011;28250;52.320;0.360;2024-02-14T07:37:33;1.10;;;0.65;;
42616;SDS011;28250;52.320;0.360;2024-02-14T07:39:59;3.50;;;0.77;;
42616;SDS011;28250;52.320;0.360;2024-02-14T07:42:26;3.50;;;0.80;;
42616;SDS011;28250;52.320;0.360;2024-02-14T07:44:52;6.65;;;0.88;;
42616;SDS011;28250;52.320;0.360;2024-02-14T07:47:19;6.75;;;1.00;;
42616;SDS011;28250;52.320;0.360;2024-02-14T07:49:45;3.53;;;0.82;;
42616;SDS011;28250;52.320;0.360;2024-02-14T07:52:11;4.88;;;1.00;;
42616;SDS011;28250;52.320;0.360;2024-02-14T07:54:37;8.80;;;2.65;;
42616;SDS011;28250;52.320;0.360;2024-02-14T07:57:03;2.42;;;0.90;;
42616;SDS011;28250;52.320;0.360;2024-02-14T07:59:29;3.40;;;1.33;;
42616;SDS011;28250;52.320;0.360;2024-02-14T08:01:56;2.92;;;0.82;;
42616;SDS011;28250;52.320;0.360;2024-02-14T08:04:22;10.33;;;1.10;;
42616;SDS011;28250;52.320;0.360;2024-02-14T08:06:48;8.98;;;1.67;;
42616;SDS011;28250;52.320;0.360;2024-02-14T08:09:15;5.50;;;1.00;;
42616;SDS011;28250;52.320;0.360;2024-02-14T08:11:41;8.55;;;1.27;;
42616;SDS011;28250;52.320;0.360;2024-02-14T08:14:07;6.18;;;0.93;;
42616;SDS011;28250;52.320;0.360;2024-02-14T08:16:33;5.72;;;1.75;;
42616;SDS011;28250;52.320;0.360;2024-02-14T08:19:01;4.03;;;1.00;;
42616;SDS011;28250;52.320;0.360;2024-02-14T08:21:28;2.63;;;2.05;;
42616;SDS011;28250;52.320;0.360;2024-02-14T08:23:54;3.33;;;1.42;;
42616;SDS011;28250;52.320;0.360;2024-02-14T08:26:21;1.83;;;0.80;;
42616;SDS011;28250;52.320;0.360;2024-02-14T08:28:48;4.28;;;1.10;;
42616;SDS011;28250;52.320;0.360;2024-02-14T08:31:14;2.65;;;1.23;;
42616;SDS011;28250;52.320;0.360;2024-02-14T08:33:41;4.00;;;1.13;;
42616;SDS011;28250;52.320;0.360;2024-02-14T08:36:08;6.22;;;1.10;;
42616;SDS011;28250;52.320;0.360;2024-02-14T08:38:34;3.95;;;1.08;;
42616;SDS011;28250;52.320;0.360;2024-02-14T08:41:01;5.00;;;1.13;;
42616;SDS011;28250;52.320;0.360;2024-02-14T08:43:28;1.40;;;0.68;;
42616;SDS011;28250;52.320;0.360;2024-02-14T08:45:55;7.68;;;1.33;;
42616;SDS011;28250;52.320;0.360;2024-02-14T08:48:22;5.70;;;1.70;;
42616;SDS011;28250;52.320;0.360;2024-02-14T08:50:49;4.97;;;1.20;;
42616;SDS011;28250;52.320;0.360;2024-02-14T08:53:15;4.78;;;1.20;;
42616;SDS011;28250;52.320;0.360;2024-02-14T08:55:42;2.45;;;1.20;;
42616;SDS011;28250;52.320;0.360;2024-02-14T08:58:08;4.43;;;1.10;;
42616;SDS011;28250;52.320;0.360;2024-02-14T09:00:38;3.63;;;1.30;;
42616;SDS011;28250;52.320;0.360;2024-02-14T09:03:05;3.47;;;1.40;;
42616;SDS011;28250;52.320;0.360;2024-02-14T09:05:31;6.72;;;1.48;;
42616;SDS011;28250;52.320;0.360;2024-02-14T09:07:57;2.73;;;1.40;;
42616;SDS011;28250;52.320;0.360;2024-02-14T09:10:26;3.67;;;1.60;;
42616;SDS011;28250;52.320;0.360;2024-02-14T09:12:52;6.07;;;1.30;;
42616;SDS011;28250;52.320;0.360;2024-02-14T09:15:18;4.03;;;1.20;;
42616;SDS011;28250;52.320;0.360;2024-02-14T09:17:45;4.53;;;1.40;;
42616;SDS011;28250;52.320;0.360;2024-02-14T09:20:11;9.15;;;1.65;;
42616;SDS011;28250;52.320;0.360;2024-02-14T09:22:39;5.05;;;1.17;;
42616;SDS011;28250;52.320;0.360;2024-02-14T09:25:08;6.13;;;1.48;;
42616;SDS011;28250;52.320;0.360;2024-02-14T09:27:35;3.13;;;1.13;;
42616;SDS011;28250;52.320;0.360;2024-02-14T09:30:01;3.28;;;1.20;;
42616;SDS011;28250;52.320;0.360;2024-02-14T09:32:30;3.30;;;1.30;;
42616;SDS011;28250;52.320;0.360;2024-02-14T09:34:58;4.95;;;1.05;;
42616;SDS011;28250;52.320;0.360;2024-02-14T09:37:25;2.20;;;0.70;;
42616;SDS011;28250;52.320;0.360;2024-02-14T09:39:53;3.22;;;0.93;;
42616;SDS011;28250;52.320;0.360;2024-02-14T09:42:22;1.40;;;0.70;;
42616;SDS011;28250;52.320;0.360;2024-02-14T09:45:08;2.38;;;0.63;;
42616;SDS011;28250;52.320;0.360;2024-02-14T09:47:34;3.42;;;0.98;;
42616;SDS011;28250;52.320;0.360;2024-02-14T09:50:02;5.22;;;4.03;;
42616;SDS011;28250;52.320;0.360;2024-02-14T09:52:31;4.15;;;0.85;;
42616;SDS011;28250;52.320;0.360;2024-02-14T09:54:59;2.40;;;0.70;;
42616;SDS011;28250;52.320;0.360;2024-02-14T09:57:28;2.05;;;0.98;;
42616;SDS011;28250;52.320;0.360;2024-02-14T09:59:56;3.10;;;0.70;;
42616;SDS011;28250;52.320;0.360;2024-02-14T10:02:22;4.65;;;0.80;;
42616;SDS011;28250;52.320;0.360;2024-02-14T10:04:48;1.85;;;1.00;;
42616;SDS011;28250;52.320;0.360;2024-02-14T10:07:15;3.30;;;1.00;;
42616;SDS011;28250;52.320;0.360;2024-02-14T10:09:41;2.80;;;1.05;;
42616;SDS011;28250;52.320;0.360;2024-02-14T10:12:08;4.57;;;0.90;;
42616;SDS011;28250;52.320;0.360;2024-02-14T10:14:35;4.78;;;1.00;;
42616;SDS011;28250;52.320;0.360;2024-02-14T10:17:05;2.35;;;1.10;;
42616;SDS011;28250;52.320;0.360;2024-02-14T10:19:35;4.15;;;0.88;;
42616;SDS011;28250;52.320;0.360;2024-02-14T10:22:01;5.13;;;1.15;;
42616;SDS011;28250;52.320;0.360;2024-02-14T10:24:30;4.57;;;1.17;;
42616;SDS011;28250;52.320;0.360;2024-02-14T10:27:00;2.70;;;0.63;;
42616;SDS011;28250;52.320;0.360;2024-02-14T10:29:26;4.82;;;1.35;;
42616;SDS011;28250;52.320;0.360;2024-02-14T10:31:52;3.60;;;0.80;;
42616;SDS011;28250;52.320;0.360;2024-02-14T10:34:19;2.58;;;0.90;;
42616;SDS011;28250;52.320;0.360;2024-02-14T10:36:53;2.83;;;0.90;;
42616;SDS011;28250;52.320;0.360;2024-02-14T10:39:24;2.20;;;0.90;;
42616;SDS011;28250;52.320;0.360;2024-02-14T10:41:52;3.13;;;1.58;;
42616;SDS011;28250;52.320;0.360;2024-02-14T10:46:46;1.95;;;1.10;;
42616;SDS011;28250;52.320;0.360;2024-02-14T10:49:14;1.23;;;1.10;;
42616;SDS011;28250;52.320;0.360;2024-02-14T10:51:42;2.85;;;1.00;;
42616;SDS011;28250;52.320;0.360;2024-02-14T10:54:14;2.15;;;0.90;;
42616;SDS011;28250;52.320;0.360;2024-02-14T10:56:42;5.13;;;1.33;;
42616;SDS011;28250;52.320;0.360;2024-02-14T10:59:19;2.30;;;1.10;;
42616;SDS011;28250;52.320;0.360;2024-02-14T11:01:47;2.30;;;1.00;;
42616;SDS011;28250;52.320;0.360;2024-02-14T11:04:14;3.77;;;1.87;;
42616;SDS011;28250;52.320;0.360;2024-02-14T11:09:14;9.15;;;1.70;;
42616;SDS011;28250;52.320;0.360;2024-02-14T11:11:44;1.88;;;1.40;;
42616;SDS011;28250;52.320;0.360;2024-02-14T11:14:14;3.72;;;1.40;;
42616;SDS011;28250;52.320;0.360;2024-02-14T11:16:47;3.03;;;1.67;;
42616;SDS011;28250;52.320;0.360;2024-02-14T11:19:13;1.52;;;1.02;;
42616;SDS011;28250;52.320;0.360;2024-02-14T11:21:43;6.85;;;1.90;;
42616;SDS011;28250;52.320;0.360;2024-02-14T11:24:12;4.80;;;1.40;;
42616;SDS011;28250;52.320;0.360;2024-02-14T11:26:50;2.80;;;1.17;;
42616;SDS011;28250;52.320;0.360;2024-02-14T11:29:17;2.45;;;1.08;;
42616;SDS011;28250;52.320;0.360;2024-02-14T11:31:45;2.40;;;1.25;;
42616;SDS011;28250;52.320;0.360;2024-02-14T11:34:13;5.00;;;1.27;;
42616;SDS011;28250;52.320;0.360;2024-02-14T11:36:44;2.20;;;1.15;;
42616;SDS011;28250;52.320;0.360;2024-02-14T11:39:13;1.55;;;0.70;;
42616;SDS011;28250;52.320;0.360;2024-02-14T11:41:40;1.95;;;0.80;;
42616;SDS011;28250;52.320;0.360;2024-02-14T11:44:07;2.03;;;0.85;;
42616;SDS011;28250;52.320;0.360;2024-02-14T11:46:35;1.67;;;0.82;;
42616;SDS011;28250;52.320;0.360;2024-02-14T11:49:03;1.70;;;0.70;;
42616;SDS011;28250;52.320;0.360;2024-02-14T11:51:31;1.52;;;0.70;;
42616;SDS011;28250;52.320;0.360;2024-02-14T11:54:06;2.25;;;0.70;;
42616;SDS011;28250;52.320;0.360;2024-02-14T11:56:34;1.70;;;0.70;;
42616;SDS011;28250;52.320;0.360;2024-02-14T11:59:04;2.10;;;0.73;;
42616;SDS011;28250;52.320;0.360;2024-02-14T12:01:35;3.50;;;1.67;;
42616;SDS011;28250;52.320;0.360;2024-02-14T12:04:04;2.95;;;0.73;;
42616;SDS011;28250;52.320;0.360;2024-02-14T12:06:34;1.95;;;0.90;;
42616;SDS011;28250;52.320;0.360;2024-02-14T12:09:04;1.40;;;0.50;;
42616;SDS011;28250;52.320;0.360;2024-02-14T12:11:32;1.67;;;0.50;;
42616;SDS011;28250;52.320;0.360;2024-02-14T12:14:02;0.90;;;0.57;;
42616;SDS011;28250;52.320;0.360;2024-02-14T12:16:30;4.40;;;1.70;;
42616;SDS011;28250;52.320;0.360;2024-02-14T12:19:05;1.58;;;0.47;;
42616;SDS011;28250;52.320;0.360;2024-02-14T12:21:49;2.42;;;0.82;;
42616;SDS011;28250;52.320;0.360;2024-02-14T12:24:15;1.48;;;0.60;;
42616;SDS011;28250;52.320;0.360;2024-02-14T12:26:42;0.70;;;0.38;;
42616;SDS011;28250;52.320;0.360;2024-02-14T12:29:10;1.77;;;0.45;;
42616;SDS011;28250;52.320;0.360;2024-02-14T12:31:38;1.88;;;0.55;;
42616;SDS011;28250;52.320;0.360;2024-02-14T12:34:04;3.95;;;0.40;;
42616;SDS011;28250;52.320;0.360;2024-02-14T12:36:30;2.15;;;0.60;;
42616;SDS011;28250;52.320;0.360;2024-02-14T12:39:01;1.00;;;0.60;;
42616;SDS011;28250;52.320;0.360;2024-02-14T12:41:28;0.50;;;0.40;;
42616;SDS011;28250;52.320;0.360;2024-02-14T12:43:55;3.85;;;0.50;;
42616;SDS011;28250;52.320;0.360;2024-02-14T12:46:24;2.00;;;0.50;;
42616;SDS011;28250;52.320;0.360;2024-02-14T12:48:50;1.38;;;0.57;;
42616;SDS011;28250;52.320;0.360;2024-02-14T12:51:16;1.65;;;0.70;;
42616;SDS011;28250;52.320;0.360;2024-02-14T12:53:43;1.23;;;0.60;;
42616;SDS011;28250;52.320;0.360;2024-02-14T12:56:09;2.22;;;0.70;;
42616;SDS011;28250;52.320;0.360;2024-02-14T12:58:35;2.70;;;0.35;;
42616;SDS011;28250;52.320;0.360;2024-02-14T13:01:02;1.27;;;0.60;;
42616;SDS011;28250;52.320;0.360;2024-02-14T13:03:31;1.63;;;0.50;;
42616;SDS011;28250;52.320;0.360;2024-02-14T13:05:59;1.55;;;0.40;;
42616;SDS011;28250;52.320;0.360;2024-02-14T13:08:25;2.38;;;0.40;;
42616;SDS011;28250;52.320;0.360;2024-02-14T13:10:52;1.92;;;0.45;;
42616;SDS011;28250;52.320;0.360;2024-02-14T13:13:18;1.52;;;0.43;;
42616;SDS011;28250;52.320;0.360;2024-02-14T13:15:44;2.95;;;0.50;;
42616;SDS011;28250;52.320;0.360;2024-02-14T13:18:10;0.65;;;0.30;;
42616;SDS011;28250;52.320;0.360;2024-02-14T13:20:37;0.55;;;0.45;;
42616;SDS011;28250;52.320;0.360;2024-02-14T13:23:04;2.50;;;0.40;;
42616;SDS011;28250;52.320;0.360;2024-02-14T13:25:33;2.17;;;0.47;;
42616;SDS011;28250;52.320;0.360;2024-02-14T13:27:59;1.50;;;0.80;;
42616;SDS011;28250;52.320;0.360;2024-02-14T13:30:26;4.18;;;0.55;;
42616;SDS011;28250;52.320;0.360;2024-02-14T13:32:52;3.25;;;0.70;;
42616;SDS011;28250;52.320;0.360;2024-02-14T13:35:18;6.32;;;1.50;;
42616;SDS011;28250;52.320;0.360;2024-02-14T13:37:45;3.50;;;1.00;;
42616;SDS011;28250;52.320;0.360;2024-02-14T13:40:11;2.85;;;0.60;;
42616;SDS011;28250;52.320;0.360;2024-02-14T13:42:38;1.40;;;0.40;;
42616;SDS011;28250;52.320;0.360;2024-02-14T13:45:07;4.10;;;0.63;;
42616;SDS011;28250;52.320;0.360;2024-02-14T13:47:37;3.92;;;0.73;;
42616;SDS011;28250;52.320;0.360;2024-02-14T13:50:08;1.40;;;0.60;;
42616;SDS011;28250;52.320;0.360;2024-02-14T13:52:35;2.40;;;1.00;;
42616;SDS011;28250;52.320;0.360;2024-02-14T13:55:02;1.95;;;0.60;;
42616;SDS011;28250;52.320;0.360;2024-02-14T13:57:31;2.75;;;0.73;;
42616;SDS011;28250;52.320;0.360;2024-02-14T14:00:02;2.25;;;0.75;;
42616;SDS011;28250;52.320;0.360;2024-02-14T14:02:37;2.65;;;0.80;;
42616;SDS011;28250;52.320;0.360;2024-02-14T14:05:10;3.10;;;0.50;;
42616;SDS011;28250;52.320;0.360;2024-02-14T14:07:40;5.72;;;1.70;;
42616;SDS011;28250;52.320;0.360;2024-02-14T14:10:08;3.80;;;0.90;;
42616;SDS011;28250;52.320;0.360;2024-02-14T14:12:34;3.83;;;0.75;;
42616;SDS011;28250;52.320;0.360;2024-02-14T14:15:01;4.97;;;0.95;;
42616;SDS011;28250;52.320;0.360;2024-02-14T14:17:29;4.60;;;0.77;;
42616;SDS011;28250;52.320;0.360;2024-02-14T14:19:55;3.50;;;1.25;;
42616;SDS011;28250;52.320;0.360;2024-02-14T14:22:21;6.10;;;1.08;;
42616;SDS011;28250;52.320;0.360;2024-02-14T14:24:48;2.55;;;0.55;;
42616;SDS011;28250;52.320;0.360;2024-02-14T14:27:14;5.50;;;1.13;;
42616;SDS011;28250;52.320;0.360;2024-02-14T14:29:40;4.25;;;0.90;;
42616;SDS011;28250;52.320;0.360;2024-02-14T14:32:07;2.88;;;0.88;;
42616;SDS011;28250;52.320;0.360;2024-02-14T14:34:34;9.00;;;1.88;;
42616;SDS011;28250;52.320;0.360;2024-02-14T14:37:00;3.15;;;1.00;;
42616;SDS011;28250;52.320;0.360;2024-02-14T14:41:54;5.03;;;0.95;;
42616;SDS011;28250;52.320;0.360;2024-02-14T14:44:26;4.57;;;1.02;;
42616;SDS011;28250;52.320;0.360;2024-02-14T14:46:55;6.57;;;1.00;;
42616;SDS011;28250;52.320;0.360;2024-02-14T14:49:21;2.35;;;1.08;;
42616;SDS011;28250;52.320;0.360;2024-02-14T14:51:48;2.95;;;0.93;;
42616;SDS011;28250;52.320;0.360;2024-02-14T14:54:14;3.72;;;0.88;;
42616;SDS011;28250;52.320;0.360;2024-02-14T14:56:40;4.30;;;0.75;;
42616;SDS011;28250;52.320;0.360;2024-02-14T14:59:06;8.88;;;2.25;;
42616;SDS011;28250;52.320;0.360;2024-02-14T15:01:34;4.90;;;1.00;;
42616;SDS011;28250;52.320;0.360;2024-02-14T15:04:01;4.03;;;0.85;;
42616;SDS011;28250;52.320;0.360;2024-02-14T15:06:28;3.60;;;1.20;;
42616;SDS011;28250;52.320;0.360;2024-02-14T15:08:54;5.28;;;0.85;;
42616;SDS011;28250;52.320;0.360;2024-02-14T15:11:20;5.30;;;1.17;;